aviador You're here:

KHLR Decoded Metar

FORT HOOD in TX, USA
Report Time2017-07-24 13:58:00
UTC Time2017-07-24 14:49:20
Flight Rules vfr VFR
Wind200° at 11 kt
W.Decomp.*RWY 16: 9.0 kt HW 6.3 kt RCW
W.Rank200° ranks 17
Current wind is above 200° avg. (7.7)
Visibility9999 m
Phenomena:N/A
Clouds:N/A
Expected CloudBase > 1,200 ft AGL from Temp-Dew spread
CeilingNone
Temp25°C (ISA +12)
Dew Point22°C (83% RH)
QNH1015 hPa
Density Alt2,582 ft
Elevation928 ft
Report Wrong Elevation
Raw Report
KHLR 241358Z AUTO 20011KT 9SM CLR 25/22 A2997 RMK AO2 RAB1258E03
SLP138 P0000 T02520221=

Extra information for KHLR:More info

Metar Taf Metar & Taf Last 4 Metars F.Rules Stats Wind Profile Meteogram Temp Stats Airport Information Weather charts Add Link Nearby VenuesMetar ALERT Operation Metar Decoded Social comments

AIRNAV info for KHLR